Time;durP1;ratioP1;P1;durP2;ratioP2;P2;SDS_P1;SDS_P2;PMS_P1;PMS_P2;Temp;Humidity;BMP_temperature;BMP_pressure;BME280_temperature;BME280_humidity;BME280_pressure;Samples;Min_cycle;Max_cycle;Signal;HPM_P1;HPM_P2
2023/12/10 00:02:07;;;;;;;;;;;;;;;2.20;72.51;99636.25;4420726;32;32686;-81
2023/12/10 00:04:36;;;;;;;;;;;;;;;2.11;74.50;99624.19;4420795;32;34864;-81
2023/12/10 00:07:03;;;;;;;;;;;;;;;2.93;70.48;99616.97;4408914;32;34304;-81
2023/12/10 00:09:31;;;;;;;;;;;;;;;2.60;71.08;99623.53;4408412;32;32922;-81
2023/12/10 00:11:58;;;;;;;;;;;;;;;2.55;71.81;99627.97;4421482;32;33765;-81
2023/12/10 00:14:26;;;;;;;;;;;;;;;2.38;72.99;99612.56;4406520;32;33737;-81
2023/12/10 00:16:53;;;;;;;;;;;;;;;2.31;72.90;99606.56;4423212;32;33781;-81
2023/12/10 00:19:21;;;;;;;;;;;;;;;2.25;72.53;99606.66;4408386;32;32950;-81
2023/12/10 00:21:49;;;;;;;;;;;;;;;2.18;73.39;99597.19;4408702;32;32350;-81
2023/12/10 00:24:17;;;;;;;;;;;;;;;2.42;72.46;99600.34;4412328;32;33538;-81
2023/12/10 00:26:44;;;;;;;;;;;;;;;2.05;73.53;99608.66;4408748;32;32161;-81
2023/12/10 00:29:12;;;;;;;;;;;;;;;2.93;70.67;99598.72;4403926;32;34140;-81
2023/12/10 00:31:43;;;;;;;;;;;;;;;2.49;72.27;99600.25;4421724;32;32309;-81
2023/12/10 00:34:11;;;;;;;;;;;;;;;2.50;71.91;99603.72;4401799;32;32811;-80
2023/12/10 00:36:38;;;;;;;;;;;;;;;2.63;70.80;99612.22;4408579;32;33571;-82
2023/12/10 00:39:06;;;;;;;;;;;;;;;2.34;72.28;99610.03;4421039;32;32887;-81
2023/12/10 00:41:33;;;;;;;;;;;;;;;2.48;72.01;99608.09;4407959;32;32034;-80
2023/12/10 00:44:02;;;;;;;;;;;;;;;2.30;72.34;99606.59;4408694;32;33385;-80
2023/12/10 00:46:29;;;;;;;;;;;;;;;2.46;71.85;99609.84;4420598;32;34021;-80
2023/12/10 00:48:57;;;;;;;;;;;;;;;2.62;71.28;99593.12;4407493;32;33576;-80
2023/12/10 00:51:24;;;;;;;;;;;;;;;2.73;71.04;99592.94;4421867;32;32394;-80
2023/12/10 00:53:52;;;;;;;;;;;;;;;2.21;72.88;99599.75;4412683;32;32898;-80
2023/12/10 00:56:20;;;;;;;;;;;;;;;2.38;72.93;99596.09;4408132;32;33287;-80
2023/12/10 00:58:47;;;;;;;;;;;;;;;2.42;72.45;99588.19;4421242;32;34081;-80
2023/12/10 01:01:14;;;;;;;;;;;;;;;2.41;72.22;99591.66;4407465;32;32465;-80
2023/12/10 01:03:42;;;;;;;;;;;;;;;2.26;72.90;99581.47;4421160;32;34219;-80
2023/12/10 01:06:10;;;;;;;;;;;;;;;2.88;70.93;99570.97;4421497;32;34481;-80
2023/12/10 01:08:37;;;;;;;;;;;;;;;2.55;71.67;99574.09;4421096;32;34191;-80
2023/12/10 01:11:09;;;;;;;;;;;;;;;2.51;71.36;99574.16;4407810;32;32838;-80
2023/12/10 01:13:36;;;;;;;;;;;;;;;2.39;72.45;99576.94;4387125;32;32944;-81
2023/12/10 01:16:04;;;;;;;;;;;;;;;2.07;74.29;99575.63;4420657;32;33517;-81
2023/12/10 01:18:37;;;;;;;;;;;;;;;2.40;73.09;99568.25;4421417;32;34139;-81
2023/12/10 01:21:09;;;;;;;;;;;;;;;2.44;72.85;99559.50;4420769;32;32876;-81
2023/12/10 01:23:37;;;;;;;;;;;;;;;2.34;73.02;99570.94;4421091;32;33802;-80
2023/12/10 01:26:06;;;;;;;;;;;;;;;2.91;70.78;99576.16;4421295;32;35100;-80
2023/12/10 01:28:34;;;;;;;;;;;;;;;2.55;71.77;99571.47;4407215;32;32643;-80
2023/12/10 01:31:02;;;;;;;;;;;;;;;2.54;71.52;99555.88;4420742;32;32736;-81
2023/12/10 01:33:29;;;;;;;;;;;;;;;2.56;72.46;99561.91;4420624;32;33906;-80
2023/12/10 01:35:57;;;;;;;;;;;;;;;2.78;71.04;99550.28;4406632;32;33122;-80
2023/12/10 01:38:25;;;;;;;;;;;;;;;2.82;71.31;99553.69;4395435;32;33296;-80
2023/12/10 01:40:52;;;;;;;;;;;;;;;2.77;70.58;99558.97;4420480;32;33905;-79
2023/12/10 01:43:20;;;;;;;;;;;;;;;2.96;70.89;99553.47;4420602;32;33749;-80
2023/12/10 01:45:50;;;;;;;;;;;;;;;2.90;70.89;99540.53;4420462;32;34297;-81
2023/12/10 01:48:21;;;;;;;;;;;;;;;2.94;70.87;99548.25;4407473;32;33062;-81
2023/12/10 01:50:49;;;;;;;;;;;;;;;2.66;71.61;99541.78;4420316;32;33897;-81
2023/12/10 01:53:17;;;;;;;;;;;;;;;2.94;70.31;99536.97;4407789;32;32671;-81
2023/12/10 01:55:44;;;;;;;;;;;;;;;2.91;70.93;99534.44;4407885;32;33831;-82
2023/12/10 01:58:13;;;;;;;;;;;;;;;3.02;70.54;99527.28;4420144;32;33909;-81
2023/12/10 02:00:40;;;;;;;;;;;;;;;2.66;71.90;99529.63;4420246;32;32983;-82
2023/12/10 02:03:08;;;;;;;;;;;;;;;2.97;71.06;99521.28;4420245;32;33459;-81
2023/12/10 02:05:36;;;;;;;;;;;;;;;3.21;69.52;99512.16;4407094;32;33304;-82
2023/12/10 02:08:04;;;;;;;;;;;;;;;3.02;69.56;99514.25;4407178;32;32282;-81
2023/12/10 02:10:31;;;;;;;;;;;;;;;2.56;71.25;99512.38;4420168;32;33460;-81
2023/12/10 02:12:59;;;;;;;;;;;;;;;2.72;70.86;99506.06;4421027;32;32646;-81
2023/12/10 02:15:29;;;;;;;;;;;;;;;2.50;71.83;99515.09;4420023;32;34298;-81
2023/12/10 02:17:57;;;;;;;;;;;;;;;2.83;71.32;99518.91;4405419;32;33116;-81
2023/12/10 02:20:25;;;;;;;;;;;;;;;3.04;70.39;99499.44;4412330;32;33255;-81
2023/12/10 02:22:53;;;;;;;;;;;;;;;2.91;70.80;99492.72;4406922;32;33195;-81
2023/12/10 02:25:25;;;;;;;;;;;;;;;3.03;69.88;99487.25;4402147;32;33074;-81
2023/12/10 02:27:53;;;;;;;;;;;;;;;2.90;70.47;99485.78;4420319;32;34251;-80
2023/12/10 02:30:21;;;;;;;;;;;;;;;2.78;70.91;99476.41;4420695;32;34256;-81
2023/12/10 02:32:49;;;;;;;;;;;;;;;2.43;72.33;99470.03;4407099;32;33325;-81
2023/12/10 02:35:16;;;;;;;;;;;;;;;2.75;71.32;99463.41;4420357;32;34251;-82
2023/12/10 02:37:44;;;;;;;;;;;;;;;2.71;71.13;99459.16;4407003;32;32784;-81
2023/12/10 02:40:11;;;;;;;;;;;;;;;2.93;70.69;99441.38;4407747;32;32986;-81
2023/12/10 02:42:39;;;;;;;;;;;;;;;2.81;71.09;99435.50;4407159;32;33140;-81
2023/12/10 02:45:06;;;;;;;;;;;;;;;2.58;71.58;99418.56;4419266;32;33861;-81
2023/12/10 02:47:35;;;;;;;;;;;;;;;2.67;71.77;99410.56;4420050;32;33585;-81
2023/12/10 02:50:03;;;;;;;;;;;;;;;2.64;70.86;99427.13;4407215;32;32725;-82
2023/12/10 02:52:33;;;;;;;;;;;;;;;3.01;69.91;99405.59;4415012;32;34208;-81
2023/12/10 02:55:01;;;;;;;;;;;;;;;3.08;69.89;99401.94;4402252;32;33790;-82
2023/12/10 02:57:29;;;;;;;;;;;;;;;2.36;71.97;99415.44;4407538;32;33308;-82
2023/12/10 02:59:56;;;;;;;;;;;;;;;2.29;72.78;99414.69;4406832;32;32170;-81
2023/12/10 03:02:24;;;;;;;;;;;;;;;2.23;73.15;99420.88;4419892;32;34412;-82
2023/12/10 03:04:52;;;;;;;;;;;;;;;2.20;72.75;99426.12;4406823;32;32660;-82
2023/12/10 03:07:19;;;;;;;;;;;;;;;2.01;74.38;99417.72;4406933;32;33304;-82
2023/12/10 03:09:46;;;;;;;;;;;;;;;2.15;73.55;99420.13;4407094;32;32087;-82
2023/12/10 03:12:14;;;;;;;;;;;;;;;2.43;72.29;99402.28;4407624;32;33965;-82
2023/12/10 03:14:41;;;;;;;;;;;;;;;2.51;72.47;99402.16;4421637;32;34972;-82
2023/12/10 03:17:09;;;;;;;;;;;;;;;2.15;73.27;99412.31;4407726;32;33616;-83
2023/12/10 03:19:38;;;;;;;;;;;;;;;2.18;73.93;99400.97;4421580;32;33135;-82
2023/12/10 03:22:05;;;;;;;;;;;;;;;2.18;73.53;99407.03;4421845;32;33849;-82
2023/12/10 03:24:33;;;;;;;;;;;;;;;2.31;73.48;99413.75;4408554;32;32612;-82
2023/12/10 03:27:01;;;;;;;;;;;;;;;2.42;72.74;99416.22;4409181;32;33292;-82
2023/12/10 03:29:28;;;;;;;;;;;;;;;2.82;71.69;99418.09;4421121;32;34015;-82
2023/12/10 03:31:55;;;;;;;;;;;;;;;2.68;71.98;99420.09;4421422;32;33689;-80
2023/12/10 03:34:25;;;;;;;;;;;;;;;3.08;70.69;99425.44;4408993;32;33386;-80
2023/12/10 03:36:52;;;;;;;;;;;;;;;2.98;70.36;99426.50;4421237;32;33841;-80
2023/12/10 03:39:20;;;;;;;;;;;;;;;2.92;71.33;99439.66;4407916;32;32364;-80
2023/12/10 03:41:48;;;;;;;;;;;;;;;2.94;71.14;99443.94;4420953;32;33757;-80
2023/12/10 03:44:16;;;;;;;;;;;;;;;2.99;70.81;99438.63;4408973;32;33584;-81
2023/12/10 03:46:43;;;;;;;;;;;;;;;3.07;69.90;99432.41;4408212;32;32777;-81
2023/12/10 03:49:11;;;;;;;;;;;;;;;3.22;69.10;99426.00;4408812;32;31821;-81
2023/12/10 03:51:38;;;;;;;;;;;;;;;3.20;69.81;99434.78;4421906;32;34153;-81
2023/12/10 03:54:06;;;;;;;;;;;;;;;3.08;70.66;99434.09;4421265;32;34275;-82
2023/12/10 03:56:33;;;;;;;;;;;;;;;3.23;69.79;99427.75;4406590;32;33322;-81
2023/12/10 03:59:01;;;;;;;;;;;;;;;3.21;70.22;99424.31;4407562;32;32397;-81
2023/12/10 04:01:28;;;;;;;;;;;;;;;3.08;69.85;99412.38;4408587;32;33774;-80
2023/12/10 04:03:56;;;;;;;;;;;;;;;2.95;70.88;99413.53;4408622;32;33123;-81
2023/12/10 04:06:24;;;;;;;;;;;;;;;3.05;70.72;99410.72;4421189;32;33684;-83
2023/12/10 04:08:51;;;;;;;;;;;;;;;3.19;69.97;99410.44;4408455;32;32205;-82
2023/12/10 04:11:23;;;;;;;;;;;;;;;3.23;69.76;99425.16;4422010;32;34063;-82
2023/12/10 04:13:50;;;;;;;;;;;;;;;2.89;70.52;99424.91;4421983;32;33762;-82
2023/12/10 04:16:27;;;;;;;;;;;;;;;2.89;70.62;99426.66;4421055;32;34482;-82
2023/12/10 04:18:55;;;;;;;;;;;;;;;3.01;70.69;99421.22;4419485;32;33064;-82
2023/12/10 04:21:22;;;;;;;;;;;;;;;2.68;71.48;99423.56;4396290;32;32783;-82
2023/12/10 04:23:50;;;;;;;;;;;;;;;2.62;71.84;99410.66;4420631;32;33305;-82
2023/12/10 04:26:18;;;;;;;;;;;;;;;2.56;71.58;99423.78;4421220;32;33614;-82
2023/12/10 04:28:45;;;;;;;;;;;;;;;2.53;72.28;99419.50;4421455;32;33715;-81
2023/12/10 04:31:12;;;;;;;;;;;;;;;2.69;71.75;99409.62;4420684;32;34252;-80
2023/12/10 04:33:41;;;;;;;;;;;;;;;2.80;70.64;99406.84;4408369;32;33089;-81
2023/12/10 04:36:09;;;;;;;;;;;;;;;2.29;73.48;99414.69;4402670;32;34419;-81
2023/12/10 04:38:37;;;;;;;;;;;;;;;2.40;71.96;99411.91;4407950;32;33521;-81
2023/12/10 04:41:05;;;;;;;;;;;;;;;2.54;72.09;99409.91;4396195;32;33805;-81
2023/12/10 04:43:32;;;;;;;;;;;;;;;2.86;70.68;99413.72;4407717;32;33980;-82
2023/12/10 04:45:59;;;;;;;;;;;;;;;2.95;69.80;99419.59;4422497;32;33894;-82
2023/12/10 04:48:27;;;;;;;;;;;;;;;2.96;69.75;99412.63;4421251;32;33396;-81
2023/12/10 04:50:55;;;;;;;;;;;;;;;2.98;70.49;99423.88;4406897;32;33859;-81
2023/12/10 04:53:22;;;;;;;;;;;;;;;3.15;69.79;99418.38;4421243;32;33824;-81
2023/12/10 04:55:50;;;;;;;;;;;;;;;3.17;69.09;99421.78;4401641;32;33597;-81
2023/12/10 04:58:17;;;;;;;;;;;;;;;3.25;68.68;99423.34;4414085;32;31997;-81
2023/12/10 05:00:45;;;;;;;;;;;;;;;3.39;68.26;99430.06;4420863;32;34799;-81
2023/12/10 05:03:13;;;;;;;;;;;;;;;3.24;68.98;99428.63;4420123;32;34215;-81
2023/12/10 05:05:40;;;;;;;;;;;;;;;3.16;69.15;99433.12;4418500;32;34581;-81
2023/12/10 05:08:08;;;;;;;;;;;;;;;3.19;68.72;99427.84;4420983;32;32850;-81
2023/12/10 05:10:35;;;;;;;;;;;;;;;3.34;67.97;99420.56;4404497;32;33464;-81
2023/12/10 05:13:03;;;;;;;;;;;;;;;3.24;68.46;99419.03;4422446;32;33617;-81
2023/12/10 05:15:31;;;;;;;;;;;;;;;3.52;67.49;99403.66;4421446;32;33810;-80
2023/12/10 05:18:01;;;;;;;;;;;;;;;3.56;67.38;99410.53;4408680;32;32232;-80
2023/12/10 05:20:28;;;;;;;;;;;;;;;3.42;67.29;99404.75;4403121;32;33840;-80
2023/12/10 05:22:58;;;;;;;;;;;;;;;3.40;67.11;99398.69;4420104;32;33689;-80
2023/12/10 05:25:30;;;;;;;;;;;;;;;3.45;67.40;99401.22;4420896;32;34404;-80
2023/12/10 05:27:58;;;;;;;;;;;;;;;3.19;68.31;99400.00;4420037;32;34398;-80
2023/12/10 05:30:27;;;;;;;;;;;;;;;3.44;67.74;99404.72;4408219;32;32917;-80
2023/12/10 05:32:55;;;;;;;;;;;;;;;3.74;66.58;99409.25;4408902;32;33680;-80
2023/12/10 05:35:23;;;;;;;;;;;;;;;3.45;67.19;99416.88;4421034;32;34542;-80
2023/12/10 05:37:51;;;;;;;;;;;;;;;3.60;66.85;99416.53;4408003;32;32591;-80
2023/12/10 05:40:18;;;;;;;;;;;;;;;3.56;66.95;99420.09;4419518;32;34158;-81
2023/12/10 05:42:46;;;;;;;;;;;;;;;3.60;67.11;99416.53;4408497;32;34438;-81
2023/12/10 05:45:13;;;;;;;;;;;;;;;3.38;68.06;99423.13;4420650;32;34434;-81
2023/12/10 05:47:41;;;;;;;;;;;;;;;3.71;66.88;99417.19;4407383;32;32602;-81
2023/12/10 05:50:09;;;;;;;;;;;;;;;3.66;66.79;99411.19;4419598;32;35601;-81
2023/12/10 05:52:36;;;;;;;;;;;;;;;3.77;66.54;99416.19;4408517;32;33608;-81
2023/12/10 05:55:04;;;;;;;;;;;;;;;3.67;66.84;99409.44;4418088;32;34262;-81
2023/12/10 05:57:31;;;;;;;;;;;;;;;3.53;67.78;99415.81;4408416;32;33999;-82
2023/12/10 05:59:59;;;;;;;;;;;;;;;3.45;68.15;99425.56;4407687;32;33276;-81
2023/12/10 06:02:26;;;;;;;;;;;;;;;3.36;68.41;99422.28;4407827;32;34022;-81
2023/12/10 06:04:54;;;;;;;;;;;;;;;3.57;66.84;99421.84;4419201;32;34536;-81
2023/12/10 06:07:22;;;;;;;;;;;;;;;3.78;67.01;99425.72;4421117;32;33074;-81
2023/12/10 06:09:49;;;;;;;;;;;;;;;3.62;66.67;99414.78;4416458;32;34112;-80
2023/12/10 06:12:17;;;;;;;;;;;;;;;3.90;66.64;99417.62;4408113;32;32970;-80
2023/12/10 06:14:44;;;;;;;;;;;;;;;3.81;66.04;99416.09;4419822;32;34134;-80
2023/12/10 06:17:12;;;;;;;;;;;;;;;3.85;66.31;99416.88;4406723;32;32814;-81
2023/12/10 06:19:39;;;;;;;;;;;;;;;3.96;65.90;99414.00;4420899;32;35690;-81
2023/12/10 06:22:07;;;;;;;;;;;;;;;3.96;65.37;99419.25;4421066;32;34103;-80
2023/12/10 06:24:34;;;;;;;;;;;;;;;3.68;65.84;99417.25;4419362;32;34643;-80
2023/12/10 06:27:02;;;;;;;;;;;;;;;3.73;66.85;99418.00;4394237;32;33450;-80
2023/12/10 06:29:30;;;;;;;;;;;;;;;3.67;66.49;99423.34;4408047;32;33292;-80
2023/12/10 06:31:57;;;;;;;;;;;;;;;3.80;66.32;99423.97;4420677;32;34308;-81
2023/12/10 06:34:24;;;;;;;;;;;;;;;3.88;66.35;99432.47;4420010;32;34129;-81
2023/12/10 06:36:52;;;;;;;;;;;;;;;3.68;66.55;99432.91;4407441;32;32912;-80
2023/12/10 06:39:20;;;;;;;;;;;;;;;3.78;66.85;99439.63;4420100;32;33861;-80
2023/12/10 06:41:48;;;;;;;;;;;;;;;3.83;66.45;99443.00;4421387;32;33154;-80
2023/12/10 06:44:21;;;;;;;;;;;;;;;3.73;66.80;99449.31;4405676;32;33499;-80
2023/12/10 06:46:49;;;;;;;;;;;;;;;4.01;65.81;99444.34;4419742;32;33131;-80
2023/12/10 06:49:17;;;;;;;;;;;;;;;4.03;65.72;99450.38;4419145;32;34519;-80
2023/12/10 06:51:46;;;;;;;;;;;;;;;3.95;65.47;99452.34;4410447;32;33175;-80
2023/12/10 06:54:14;;;;;;;;;;;;;;;3.75;66.03;99458.00;4424033;32;33851;-80
2023/12/10 06:56:41;;;;;;;;;;;;;;;3.67;66.73;99475.56;4408888;32;33221;-80
2023/12/10 06:59:09;;;;;;;;;;;;;;;3.66;66.98;99473.88;4414019;32;33835;-80
2023/12/10 07:01:37;;;;;;;;;;;;;;;3.84;66.82;99473.44;4419995;32;33963;-81
2023/12/10 07:04:05;;;;;;;;;;;;;;;3.70;66.54;99474.63;4418478;32;34180;-80
2023/12/10 07:06:33;;;;;;;;;;;;;;;3.60;67.44;99471.34;4395849;32;31523;-80
2023/12/10 07:09:01;;;;;;;;;;;;;;;3.93;65.94;99466.31;4407556;32;34848;-80
2023/12/10 07:11:28;;;;;;;;;;;;;;;4.07;65.65;99470.34;4395750;32;33419;-80
2023/12/10 07:13:55;;;;;;;;;;;;;;;4.21;65.26;99477.84;4389611;32;33422;-80
2023/12/10 07:16:23;;;;;;;;;;;;;;;4.09;65.79;99483.37;4400796;32;33666;-80
2023/12/10 07:18:50;;;;;;;;;;;;;;;3.88;66.03;99482.09;4407562;32;33829;-80
2023/12/10 07:21:18;;;;;;;;;;;;;;;4.13;65.96;99479.81;4407444;32;34045;-80
2023/12/10 07:23:46;;;;;;;;;;;;;;;4.02;65.55;99484.41;4405167;32;31701;-80
2023/12/10 07:26:13;;;;;;;;;;;;;;;3.91;66.46;99475.94;4398879;32;32206;-80
2023/12/10 07:28:40;;;;;;;;;;;;;;;3.91;66.48;99489.87;4420370;32;33990;-80
2023/12/10 07:31:08;;;;;;;;;;;;;;;4.17;65.50;99489.28;4399796;32;35099;-80
2023/12/10 07:33:36;;;;;;;;;;;;;;;4.41;64.69;99484.38;4396380;32;34000;-83
2023/12/10 07:36:03;;;;;;;;;;;;;;;4.04;65.42;99493.06;4409953;32;32390;-83
2023/12/10 07:38:31;;;;;;;;;;;;;;;4.15;65.36;99493.69;4406702;32;33250;-83
2023/12/10 07:40:58;;;;;;;;;;;;;;;4.07;65.68;99491.22;4409744;32;32954;-83
2023/12/10 07:43:26;;;;;;;;;;;;;;;4.14;65.78;99491.97;4409568;32;33227;-83
2023/12/10 07:45:54;;;;;;;;;;;;;;;4.26;65.63;99490.81;4407592;32;32057;-83
2023/12/10 07:48:21;;;;;;;;;;;;;;;4.35;64.96;99490.63;4415943;32;32878;-83
2023/12/10 07:50:49;;;;;;;;;;;;;;;4.21;65.08;99492.69;4407670;32;33496;-83
2023/12/10 07:53:17;;;;;;;;;;;;;;;4.24;65.74;99498.72;4421698;32;33545;-83
2023/12/10 07:55:44;;;;;;;;;;;;;;;4.21;65.85;99495.28;4420403;32;34090;-83
2023/12/10 07:58:11;;;;;;;;;;;;;;;4.47;65.17;99492.94;4422370;32;33427;-83
2023/12/10 08:00:39;;;;;;;;;;;;;;;4.58;64.72;99495.31;4422186;32;34873;-83
2023/12/10 08:03:07;;;;;;;;;;;;;;;4.62;63.85;99494.34;4400171;32;33419;-83
2023/12/10 08:05:34;;;;;;;;;;;;;;;4.41;64.77;99505.28;4409036;32;32263;-83
2023/12/10 08:08:02;;;;;;;;;;;;;;;4.65;64.13;99504.69;4424050;32;33833;-83
2023/12/10 08:10:31;;;;;;;;;;;;;;;4.50;64.64;99505.06;4416531;32;34258;-83
2023/12/10 08:12:58;;;;;;;;;;;;;;;4.45;64.88;99514.78;4406522;32;33684;-83
2023/12/10 08:15:26;;;;;;;;;;;;;;;4.68;64.20;99504.63;4421156;32;34320;-83
2023/12/10 08:17:54;;;;;;;;;;;;;;;4.25;65.16;99516.09;4409844;32;32221;-83
2023/12/10 08:20:21;;;;;;;;;;;;;;;4.59;64.76;99521.41;4420234;32;34639;-83
2023/12/10 08:22:48;;;;;;;;;;;;;;;4.56;64.58;99521.50;4402898;32;33794;-83
2023/12/10 08:25:16;;;;;;;;;;;;;;;4.52;64.73;99519.00;4407575;32;32106;-83
2023/12/10 08:27:43;;;;;;;;;;;;;;;4.63;64.46;99522.19;4407941;32;33003;-83
2023/12/10 08:30:11;;;;;;;;;;;;;;;4.65;64.41;99519.53;4420500;32;33886;-83
2023/12/10 08:32:39;;;;;;;;;;;;;;;4.48;64.51;99533.03;4407856;32;32832;-83
2023/12/10 08:35:07;;;;;;;;;;;;;;;4.29;65.38;99528.22;4409071;32;32000;-83
2023/12/10 08:37:34;;;;;;;;;;;;;;;4.71;63.89;99528.09;4409857;32;32519;-83
2023/12/10 08:40:03;;;;;;;;;;;;;;;4.82;63.68;99533.94;4423766;32;34665;-83
2023/12/10 08:42:32;;;;;;;;;;;;;;;4.58;64.17;99534.53;4397843;32;95562;-83
2023/12/10 08:45:13;;;;;;;;;;;;;;;4.30;65.14;99543.00;4410058;32;31993;-83
2023/12/10 08:47:41;;;;;;;;;;;;;;;4.37;65.56;99541.13;4421081;32;34801;-84
2023/12/10 08:50:08;;;;;;;;;;;;;;;4.53;64.68;99539.84;4415840;32;32808;-83
2023/12/10 08:52:36;;;;;;;;;;;;;;;4.68;64.57;99538.63;4422107;32;34760;-84
2023/12/10 08:55:03;;;;;;;;;;;;;;;4.64;64.15;99544.81;4423590;32;32752;-83
2023/12/10 08:57:31;;;;;;;;;;;;;;;4.57;64.40;99558.97;4416376;32;33520;-83
2023/12/10 09:00:04;;;;;;;;;;;;;;;4.37;65.14;99567.25;4419511;32;33748;-84
2023/12/10 09:02:32;;;;;;;;;;;;;;;4.56;64.61;99567.72;4408533;32;33134;-83
2023/12/10 09:05:00;;;;;;;;;;;;;;;4.09;66.20;99577.44;4423651;32;32952;-83
2023/12/10 09:07:29;;;;;;;;;;;;;;;4.18;66.10;99574.63;4407942;32;33340;-83
2023/12/10 09:09:59;;;;;;;;;;;;;;;4.41;65.45;99570.62;4421023;32;35001;-84
2023/12/10 09:12:38;;;;;;;;;;;;;;;4.49;64.91;99568.72;4409636;32;32736;-83
2023/12/10 09:15:06;;;;;;;;;;;;;;;4.60;64.96;99572.84;4409617;32;31334;-83
2023/12/10 09:17:34;;;;;;;;;;;;;;;4.71;65.23;99582.19;4406932;32;34394;-83
2023/12/10 09:20:07;;;;;;;;;;;;;;;4.74;65.01;99577.72;4420218;32;34991;-83
2023/12/10 09:22:35;;;;;;;;;;;;;;;4.85;64.73;99567.88;4418851;32;34819;-83
2023/12/10 09:25:03;;;;;;;;;;;;;;;4.95;64.38;99575.50;4408690;32;32361;-83
2023/12/10 09:27:31;;;;;;;;;;;;;;;5.14;64.09;99566.28;4407974;32;33099;-83
2023/12/10 09:29:58;;;;;;;;;;;;;;;5.20;64.10;99571.34;4409258;32;33228;-83
2023/12/10 09:32:27;;;;;;;;;;;;;;;4.98;64.82;99576.25;4422067;32;32843;-83
2023/12/10 09:34:55;;;;;;;;;;;;;;;5.09;64.38;99583.88;4407848;32;32304;-83
2023/12/10 09:37:23;;;;;;;;;;;;;;;5.50;62.84;99572.31;4408678;32;33279;-83
2023/12/10 09:39:51;;;;;;;;;;;;;;;5.21;63.12;99573.06;4407634;32;33091;-83
2023/12/10 09:42:18;;;;;;;;;;;;;;;5.03;63.89;99573.53;4407278;32;33780;-83
2023/12/10 09:44:46;;;;;;;;;;;;;;;5.19;63.94;99581.87;4407578;32;33000;-83
2023/12/10 09:47:13;;;;;;;;;;;;;;;5.29;63.62;99578.97;4408296;32;32932;-83
2023/12/10 09:49:40;;;;;;;;;;;;;;;5.22;63.80;99579.16;4408181;32;33303;-83
2023/12/10 09:52:09;;;;;;;;;;;;;;;5.19;63.73;99580.13;4421327;32;34665;-83
2023/12/10 09:54:39;;;;;;;;;;;;;;;5.22;64.23;99579.16;4421634;32;33542;-83
2023/12/10 09:57:07;;;;;;;;;;;;;;;5.74;61.78;99576.03;4404124;32;32678;-83
2023/12/10 09:59:36;;;;;;;;;;;;;;;5.72;61.52;99577.84;4415158;32;34114;-83
2023/12/10 10:02:06;;;;;;;;;;;;;;;5.57;61.59;99578.25;4406538;32;34153;-83
2023/12/10 10:04:34;;;;;;;;;;;;;;;5.72;61.60;99583.06;4420862;32;33178;-83
2023/12/10 10:07:04;;;;;;;;;;;;;;;5.73;61.65;99590.03;4420266;32;34439;-83
2023/12/10 10:09:35;;;;;;;;;;;;;;;5.47;62.32;99579.41;4420524;32;34924;-83
2023/12/10 10:12:05;;;;;;;;;;;;;;;5.65;62.13;99582.41;4414400;32;33853;-83
2023/12/10 10:14:33;;;;;;;;;;;;;;;5.89;61.25;99580.88;4416477;32;33893;-83
2023/12/10 10:17:00;;;;;;;;;;;;;;;5.61;61.80;99569.44;4404077;32;32645;-83
2023/12/10 10:19:28;;;;;;;;;;;;;;;5.69;61.37;99570.06;4411862;32;33750;-83
2023/12/10 10:21:55;;;;;;;;;;;;;;;5.33;62.59;99577.16;4411347;32;34220;-84
2023/12/10 10:24:23;;;;;;;;;;;;;;;5.66;62.30;99580.63;4396699;32;32182;-84
2023/12/10 10:26:52;;;;;;;;;;;;;;;5.84;61.32;99574.00;4405276;32;34040;-83
2023/12/10 10:29:22;;;;;;;;;;;;;;;5.82;61.13;99571.44;4401131;32;32944;-83
2023/12/10 10:31:49;;;;;;;;;;;;;;;5.65;61.90;99584.16;4414035;32;33462;-83
2023/12/10 10:34:17;;;;;;;;;;;;;;;5.46;62.31;99582.91;4400018;32;33202;-83
2023/12/10 10:36:44;;;;;;;;;;;;;;;5.60;62.20;99584.28;4407850;32;34171;-84
2023/12/10 10:39:12;;;;;;;;;;;;;;;5.34;62.41;99590.19;4409267;32;34223;-83
2023/12/10 10:41:40;;;;;;;;;;;;;;;5.13;63.82;99591.59;4404969;32;33836;-84
2023/12/10 10:44:07;;;;;;;;;;;;;;;5.23;63.92;99596.63;4405547;32;32157;-84
2023/12/10 10:46:34;;;;;;;;;;;;;;;5.30;64.04;99593.78;4413633;32;34194;-84
2023/12/10 10:49:03;;;;;;;;;;;;;;;5.77;62.49;99596.91;4400291;32;33460;-84
2023/12/10 10:51:31;;;;;;;;;;;;;;;5.40;63.03;99605.72;4402135;32;32746;-83
2023/12/10 10:54:02;;;;;;;;;;;;;;;5.36;63.46;99593.66;4414746;32;33142;-84
2023/12/10 10:56:29;;;;;;;;;;;;;;;5.49;62.99;99588.06;4398904;32;32997;-83
2023/12/10 10:58:57;;;;;;;;;;;;;;;5.60;63.28;99596.50;4398544;32;32854;-84
2023/12/10 11:01:40;;;;;;;;;;;;;;;5.58;62.88;99601.78;4395827;32;33282;-83
2023/12/10 11:04:15;;;;;;;;;;;;;;;5.44;63.45;99605.66;4395765;32;31920;-84
2023/12/10 11:06:45;;;;;;;;;;;;;;;5.45;63.65;99587.28;4410345;32;34543;-84
2023/12/10 11:09:13;;;;;;;;;;;;;;;5.57;62.25;99588.75;4392912;32;32713;-84
2023/12/10 11:11:40;;;;;;;;;;;;;;;5.68;62.29;99589.28;4411551;32;34240;-84
2023/12/10 11:14:19;;;;;;;;;;;;;;;6.02;60.76;99589.25;4397713;32;33170;-84
2023/12/10 11:16:48;;;;;;;;;;;;;;;5.62;61.94;99592.09;4392674;32;33101;-84
2023/12/10 11:19:17;;;;;;;;;;;;;;;5.51;62.87;99594.16;4398854;32;34432;-84
2023/12/10 11:21:45;;;;;;;;;;;;;;;5.62;62.84;99592.94;4412546;32;33820;-84
2023/12/10 11:24:13;;;;;;;;;;;;;;;5.63;63.08;99592.03;4400705;32;32923;-84
2023/12/10 11:26:40;;;;;;;;;;;;;;;5.58;63.22;99600.94;4413645;32;33751;-84
2023/12/10 11:29:07;;;;;;;;;;;;;;;5.69;63.03;99605.88;4399578;32;33697;-84
2023/12/10 11:31:35;;;;;;;;;;;;;;;5.56;62.98;99610.59;4399857;32;33685;-84
2023/12/10 11:34:03;;;;;;;;;;;;;;;5.54;62.90;99613.22;4393054;32;33298;-84
2023/12/10 11:36:31;;;;;;;;;;;;;;;5.60;62.74;99612.22;4416119;32;33895;-85
2023/12/10 11:39:12;;;;;;;;;;;;;;;5.72;62.50;99617.12;4414393;32;33912;-85
2023/12/10 11:41:41;;;;;;;;;;;;;;;5.73;62.17;99613.59;4414754;32;34125;-84
2023/12/10 11:44:26;;;;;;;;;;;;;;;5.73;62.10;99618.84;4380676;32;32051;-84
2023/12/10 11:46:54;;;;;;;;;;;;;;;5.94;61.74;99621.84;4378953;32;33132;-85
2023/12/10 11:49:25;;;;;;;;;;;;;;;5.70;62.45;99616.34;4394876;32;33536;-84
2023/12/10 11:51:53;;;;;;;;;;;;;;;5.81;62.18;99626.50;4395374;32;34285;-84
2023/12/10 11:54:20;;;;;;;;;;;;;;;5.64;62.55;99640.03;4395094;32;32401;-84
2023/12/10 11:56:47;;;;;;;;;;;;;;;5.51;62.01;99644.75;4393765;32;32964;-85
2023/12/10 11:59:15;;;;;;;;;;;;;;;5.69;62.03;99637.31;4409119;32;35028;-85
2023/12/10 12:01:45;;;;;;;;;;;;;;;5.48;62.79;99644.84;4401288;32;32715;-84
2023/12/10 12:04:12;;;;;;;;;;;;;;;5.64;62.43;99645.28;4419936;32;33242;-83
2023/12/10 12:06:41;;;;;;;;;;;;;;;5.64;62.01;99646.12;4402414;32;33023;-84
2023/12/10 12:09:13;;;;;;;;;;;;;;;5.56;62.18;99647.25;4411744;32;32959;-84
2023/12/10 12:11:41;;;;;;;;;;;;;;;5.38;62.89;99649.44;4412329;32;34084;-83
2023/12/10 12:14:15;;;;;;;;;;;;;;;5.73;62.01;99655.53;4403804;32;33484;-84
2023/12/10 12:16:43;;;;;;;;;;;;;;;5.93;61.10;99649.78;4399281;32;32082;-83
2023/12/10 12:19:10;;;;;;;;;;;;;;;5.76;61.78;99650.22;4398246;32;34584;-83
2023/12/10 12:21:38;;;;;;;;;;;;;;;5.09;64.56;99657.16;4399864;32;33477;-83
2023/12/10 12:24:06;;;;;;;;;;;;;;;5.64;62.59;99661.84;4417839;32;33818;-84
2023/12/10 12:26:33;;;;;;;;;;;;;;;5.60;62.39;99660.25;4409764;32;33390;-83
2023/12/10 12:29:01;;;;;;;;;;;;;;;5.53;63.29;99660.44;4405713;32;33040;-83
2023/12/10 12:31:28;;;;;;;;;;;;;;;5.40;63.71;99671.19;4403380;32;34961;-84
2023/12/10 12:33:56;;;;;;;;;;;;;;;5.48;63.65;99667.53;4414986;32;33624;-83
2023/12/10 12:36:23;;;;;;;;;;;;;;;5.67;62.87;99675.78;4400620;32;33710;-83
2023/12/10 12:38:51;;;;;;;;;;;;;;;5.63;62.75;99669.75;4414568;32;34703;-83
2023/12/10 12:41:18;;;;;;;;;;;;;;;5.65;62.62;99673.22;4405281;32;32971;-83
2023/12/10 12:43:46;;;;;;;;;;;;;;;5.48;63.19;99675.41;4415591;32;33722;-84
2023/12/10 12:46:14;;;;;;;;;;;;;;;5.72;62.54;99677.38;4402082;32;33284;-83
2023/12/10 12:48:41;;;;;;;;;;;;;;;5.86;61.63;99663.94;4405209;32;33256;-83
2023/12/10 12:51:09;;;;;;;;;;;;;;;5.29;63.58;99677.59;4416179;32;34140;-83
2023/12/10 12:53:37;;;;;;;;;;;;;;;5.20;64.06;99691.78;4401341;32;33354;-83
2023/12/10 12:56:24;;;;;;;;;;;;;;;5.35;64.18;99690.53;4395232;32;32993;-83
2023/12/10 12:58:53;;;;;;;;;;;;;;;5.45;64.22;99692.03;4401916;32;33839;-83
2023/12/10 13:01:21;;;;;;;;;;;;;;;5.45;63.52;99696.41;4401442;32;31988;-84
2023/12/10 13:03:49;;;;;;;;;;;;;;;5.59;63.25;99707.41;4413936;32;33080;-83